Time;durP1;ratioP1;P1;durP2;ratioP2;P2;SDS_P1;SDS_P2;PMS_P1;PMS_P2;Temp;Humidity;BMP_temperature;BMP_pressure;BME280_temperature;BME280_humidity;BME280_pressure;Samples;Min_cycle;Max_cycle;Signal;HPM_P1;HPM_P2
2023/11/01 00:01:44;;;;;;;10.10;6.20;;;;;;;13.92;97.06;98826.49;106224;1259;71152;-78
2023/11/01 00:04:11;;;;;;;12.80;6.20;;;;;;;13.87;97.03;98821.67;105983;1259;60550;-80
2023/11/01 00:06:39;;;;;;;10.90;6.20;;;;;;;13.87;97.27;98832.67;106255;1259;60348;-80
2023/11/01 00:09:06;;;;;;;11.90;6.10;;;;;;;13.91;96.97;98832.20;106299;1259;72771;-80
2023/11/01 00:11:34;;;;;;;10.90;7.30;;;;;;;13.93;96.82;98828.02;106268;1263;69049;-80
2023/11/01 00:14:02;;;;;;;14.80;7.00;;;;;;;13.88;97.12;98827.17;105911;1265;71417;-82
2023/11/01 00:16:30;;;;;;;10.90;5.70;;;;;;;13.88;97.21;98827.98;107506;1259;61809;-84
2023/11/01 00:18:58;;;;;;;13.30;7.00;;;;;;;13.91;96.91;98821.90;106039;1263;60400;-80
2023/11/01 00:21:25;;;;;;;10.60;6.80;;;;;;;13.90;97.01;98818.70;106662;1259;72684;-82
2023/11/01 00:23:53;;;;;;;11.30;6.10;;;;;;;13.86;97.09;98824.14;106986;1264;68776;-82
2023/11/01 00:26:20;;;;;;;12.10;6.60;;;;;;;13.88;97.18;98827.25;105592;1259;72571;-81
2023/11/01 00:28:50;;;;;;;11.30;6.10;;;;;;;13.90;96.97;98819.36;106071;1261;60554;-79
2023/11/01 00:31:17;;;;;;;13.30;8.70;;;;;;;13.85;97.04;98807.71;107623;1259;60422;-80
2023/11/01 00:33:45;;;;;;;10.10;5.80;;;;;;;13.81;97.37;98805.92;108300;1259;72634;-83
2023/11/01 00:36:12;;;;;;;14.40;6.00;;;;;;;13.86;97.30;98807.41;106599;1259;71778;-80
2023/11/01 00:38:40;;;;;;;10.70;7.30;;;;;;;13.88;97.31;98814.77;105652;1260;73210;-84
2023/11/01 00:41:08;;;;;;;11.10;6.80;;;;;;;13.83;97.23;98803.86;106178;1263;60563;-85
2023/11/01 00:43:36;;;;;;;11.10;6.10;;;;;;;13.81;97.65;98801.52;106719;1259;60391;-86
2023/11/01 00:46:04;;;;;;;14.70;6.00;;;;;;;13.84;97.50;98792.31;107320;1259;71934;-89
2023/11/01 00:48:37;;;;;;;13.00;7.60;;;;;;;13.85;97.68;98797.61;107812;1259;68737;-90
2023/11/01 00:51:09;;;;;;;9.20;6.40;;;;;;;13.80;97.79;98790.94;107462;1265;71360;-86
2023/11/01 00:53:36;;;;;;;13.40;5.90;;;;;;;13.78;97.95;98791.47;107749;1259;61034;-87
2023/11/01 00:56:04;;;;;;;9.90;6.50;;;;;;;13.81;97.98;98784.95;108358;1259;60439;-84
2023/11/01 00:58:32;;;;;;;11.90;6.30;;;;;;;13.84;97.68;98793.38;106356;1259;72480;-83
2023/11/01 01:01:00;;;;;;;10.80;6.80;;;;;;;13.81;97.81;98792.20;105832;1259;70334;-83
2023/11/01 01:03:29;;;;;;;12.50;6.70;;;;;;;13.78;97.99;98799.98;107131;1257;71771;-85
2023/11/01 01:05:57;;;;;;;10.30;5.90;;;;;;;13.81;98.11;98797.95;106578;1257;60432;-87
2023/11/01 01:08:25;;;;;;;16.30;7.10;;;;;;;13.82;98.00;98796.20;106404;1262;60384;-83
2023/11/01 01:10:56;;;;;;;11.60;7.20;;;;;;;13.77;98.07;98807.91;105908;1263;73665;-82
2023/11/01 01:13:24;;;;;;;10.60;6.40;;;;;;;13.76;98.24;98802.91;105696;1263;69192;-81
2023/11/01 01:15:51;;;;;;;11.60;6.70;;;;;;;13.79;98.02;98797.84;105662;1264;72557;-82
2023/11/01 01:18:20;;;;;;;12.20;6.80;;;;;;;13.83;97.71;98793.48;107843;1259;60597;-80
2023/11/01 01:20:48;;;;;;;13.80;7.10;;;;;;;13.83;97.84;98805.00;108584;1259;59238;-81
2023/11/01 01:26:22;;;;;;;12.30;6.50;;;;;;;13.90;97.93;98800.66;106069;1292;599350;-84
2023/11/01 01:28:49;;;;;;;10.90;6.70;;;;;;;13.88;97.77;98788.31;108582;1267;58835;-85
2023/11/01 01:31:17;;;;;;;13.10;6.90;;;;;;;13.86;97.82;98806.48;108712;1267;58777;-84
2023/11/01 01:33:45;;;;;;;11.60;5.30;;;;;;;13.92;97.71;98801.18;109236;1256;70968;-83
2023/11/01 01:36:12;;;;;;;10.20;6.80;;;;;;;13.95;97.42;98808.11;109333;1257;69033;-82
2023/11/01 01:38:40;;;;;;;11.10;5.80;;;;;;;13.92;97.53;98800.70;109199;1256;71202;-82
2023/11/01 01:41:07;;;;;;;12.10;6.20;;;;;;;13.93;97.37;98796.45;109278;1253;191097;-84
2023/11/01 01:43:35;;;;;;;14.00;7.00;;;;;;;13.95;97.11;98792.80;109314;1253;58877;-84
2023/11/01 01:46:15;;;;;;;12.70;7.80;;;;;;;13.89;97.65;98786.66;109408;1253;70659;-84
2023/11/01 01:48:43;;;;;;;15.80;7.10;;;;;;;13.85;97.58;98774.94;109340;1254;69096;-82
2023/11/01 01:51:11;;;;;;;11.40;6.50;;;;;;;13.89;97.58;98786.71;109260;1253;71599;-82
2023/11/01 01:53:40;;;;;;;13.80;6.80;;;;;;;13.90;97.60;98774.84;109336;1253;58891;-83
2023/11/01 01:56:08;;;;;;;16.10;6.60;;;;;;;13.85;97.93;98780.10;109269;1253;59582;-81
2023/11/01 01:58:36;;;;;;;18.00;7.30;;;;;;;13.87;97.79;98784.94;108696;1254;74254;-81
2023/11/01 02:01:04;;;;;;;11.60;6.90;;;;;;;13.93;97.61;98776.33;108201;1253;70642;-80
2023/11/01 02:03:32;;;;;;;10.50;7.10;;;;;;;13.93;97.68;98774.90;108802;1252;71450;-80
2023/11/01 02:06:01;;;;;;;10.00;6.60;;;;;;;13.92;97.80;98781.43;108700;1254;60425;-82
2023/11/01 02:08:29;;;;;;;12.70;7.30;;;;;;;13.99;97.40;98782.34;108881;1253;58352;-81
2023/11/01 02:10:57;;;;;;;10.50;6.70;;;;;;;14.06;96.95;98786.91;108554;1253;73874;-80
2023/11/01 02:13:24;;;;;;;14.70;8.70;;;;;;;14.08;96.81;98783.90;108805;1253;68723;-83
2023/11/01 02:15:52;;;;;;;16.80;7.70;;;;;;;14.07;96.92;98782.38;109333;1253;71531;-83
2023/11/01 02:18:19;;;;;;;10.80;6.60;;;;;;;14.12;96.77;98776.06;109368;1252;62583;-85
2023/11/01 02:20:48;;;;;;;16.40;8.50;;;;;;;14.15;96.53;98773.58;109482;1253;59014;-85
2023/11/01 02:23:15;;;;;;;13.50;7.00;;;;;;;14.14;96.31;98777.87;109321;1253;70779;-84
2023/11/01 02:25:43;;;;;;;11.10;7.00;;;;;;;14.22;95.92;98774.29;109202;1253;69107;-80
2023/11/01 02:28:15;;;;;;;14.40;7.60;;;;;;;14.24;95.85;98773.39;108878;1254;72782;-80
2023/11/01 02:30:43;;;;;;;10.00;7.30;;;;;;;14.23;95.81;98778.31;109085;1254;58777;-79
2023/11/01 02:33:10;;;;;;;11.20;7.00;;;;;;;14.25;95.66;98771.42;109236;1253;58883;-81
2023/11/01 02:35:38;;;;;;;14.80;7.90;;;;;;;14.31;95.23;98775.86;109423;1253;71788;-83
2023/11/01 02:38:05;;;;;;;14.60;8.50;;;;;;;14.32;95.07;98777.55;109292;1253;68739;-80
2023/11/01 02:40:35;;;;;;;17.90;8.10;;;;;;;14.33;95.18;98775.81;108577;1255;71499;-78
2023/11/01 02:43:03;;;;;;;15.90;8.30;;;;;;;14.37;94.69;98766.88;108985;1253;60709;-81
2023/11/01 02:45:31;;;;;;;12.80;7.90;;;;;;;14.35;94.56;98773.21;109170;1254;58740;-81
2023/11/01 02:47:59;;;;;;;10.70;7.00;;;;;;;14.32;94.75;98773.77;109384;1253;72423;-87
2023/11/01 02:50:27;;;;;;;8.50;7.50;;;;;;;14.34;94.52;98773.88;109571;1253;68836;-88
2023/11/01 02:52:55;;;;;;;15.20;8.10;;;;;;;14.32;94.49;98770.84;109150;1253;71893;-84
2023/11/01 02:55:22;;;;;;;14.90;8.60;;;;;;;14.34;94.31;98776.35;109397;1253;60736;-88
2023/11/01 02:57:51;;;;;;;16.20;9.50;;;;;;;14.36;94.31;98771.92;109252;1253;58953;-81
2023/11/01 03:00:18;;;;;;;12.10;8.10;;;;;;;14.37;94.06;98765.70;109232;1253;71649;-82
2023/11/01 03:02:47;;;;;;;12.70;8.60;;;;;;;14.38;94.05;98763.58;108601;1253;68761;-80
2023/11/01 03:05:15;;;;;;;14.80;8.80;;;;;;;14.35;94.10;98748.17;108929;1253;73102;-78
2023/11/01 03:07:43;;;;;;;19.20;8.10;;;;;;;14.33;94.14;98761.34;109428;1253;60495;-80
2023/11/01 03:10:11;;;;;;;13.30;8.60;;;;;;;14.37;94.07;98749.72;108813;1254;59079;-83
2023/11/01 03:12:39;;;;;;;13.30;9.60;;;;;;;14.37;93.69;98743.36;107808;1254;71771;-78
2023/11/01 03:15:07;;;;;;;12.30;8.20;;;;;;;14.31;93.99;98750.87;108063;1253;69459;-80
2023/11/01 03:17:35;;;;;;;14.70;8.00;;;;;;;14.33;93.92;98742.11;107686;1256;71336;-78
2023/11/01 03:20:05;;;;;;;14.40;8.10;;;;;;;14.37;93.83;98743.16;108079;1260;62682;-77
2023/11/01 03:22:33;;;;;;;17.60;11.40;;;;;;;14.38;93.67;98741.62;108422;1253;60196;-77
2023/11/01 03:25:01;;;;;;;17.10;10.40;;;;;;;14.33;93.70;98737.91;108437;1253;70825;-82
2023/11/01 03:27:28;;;;;;;13.90;8.20;;;;;;;14.37;93.61;98733.41;107573;1254;68836;-79
2023/11/01 03:29:56;;;;;;;18.50;8.80;;;;;;;14.43;93.33;98737.30;107706;1255;73306;-80
2023/11/01 03:32:23;;;;;;;12.30;9.40;;;;;;;14.41;93.18;98729.55;108211;1254;59728;-80
2023/11/01 03:34:51;;;;;;;14.30;8.30;;;;;;;14.40;93.40;98729.40;107937;1253;59631;-78
2023/11/01 03:37:19;;;;;;;18.40;11.50;;;;;;;14.42;93.25;98726.05;108279;1253;71764;-79
2023/11/01 03:39:46;;;;;;;16.90;10.80;;;;;;;14.40;93.13;98724.18;107975;1253;69034;-80
2023/11/01 03:42:14;;;;;;;15.40;9.00;;;;;;;14.36;93.31;98727.04;107465;1254;72245;-79
2023/11/01 03:44:42;;;;;;;16.30;9.60;;;;;;;14.39;93.20;98725.04;108421;1255;61656;-79
2023/11/01 03:47:09;;;;;;;15.90;9.90;;;;;;;14.42;93.21;98723.75;108607;1253;59510;-80
2023/11/01 03:49:37;;;;;;;13.80;9.40;;;;;;;14.38;93.38;98724.15;108170;1253;72013;-83
2023/11/01 03:52:05;;;;;;;15.90;9.30;;;;;;;14.36;93.40;98727.52;108933;1253;70339;-84
2023/11/01 03:54:33;;;;;;;18.40;9.30;;;;;;;14.40;93.30;98720.31;109145;1253;71506;-81
2023/11/01 03:57:02;;;;;;;18.80;11.00;;;;;;;14.40;93.27;98723.14;108323;1254;59631;-81
2023/11/01 03:59:30;;;;;;;14.40;10.10;;;;;;;14.37;93.35;98731.72;107998;1253;59300;-81
2023/11/01 04:01:58;;;;;;;12.00;9.00;;;;;;;14.41;93.20;98724.05;108615;1253;71843;-81
2023/11/01 04:04:27;;;;;;;17.50;10.20;;;;;;;14.45;92.95;98718.83;108596;1253;68882;-81
2023/11/01 04:06:54;;;;;;;13.40;11.10;;;;;;;14.45;92.89;98725.98;108419;1259;72370;-80
2023/11/01 04:09:21;;;;;;;30.20;20.70;;;;;;;14.41;92.81;98726.17;107653;1253;60569;-79
2023/11/01 04:11:49;;;;;;;13.40;10.20;;;;;;;14.44;93.01;98732.90;107359;1253;59628;-80
2023/11/01 04:14:17;;;;;;;11.40;10.00;;;;;;;14.47;92.60;98728.24;107248;1254;71815;-82
2023/11/01 04:16:44;;;;;;;15.70;10.10;;;;;;;14.40;92.77;98729.85;107351;1253;68885;-84
2023/11/01 04:19:12;;;;;;;15.10;9.60;;;;;;;14.39;92.84;98726.37;108101;1253;73030;-87
2023/11/01 04:21:42;;;;;;;18.60;10.90;;;;;;;14.41;92.72;98719.48;108188;1254;60156;-88
2023/11/01 04:24:10;;;;;;;17.40;11.90;;;;;;;14.37;92.91;98720.05;108019;1253;59611;-85
2023/11/01 04:26:38;;;;;;;15.10;10.40;;;;;;;14.32;93.03;98729.54;108089;1253;71895;-82
2023/11/01 04:29:06;;;;;;;16.70;10.40;;;;;;;14.36;92.93;98729.55;107862;1253;70307;-83
2023/11/01 04:31:33;;;;;;;16.10;11.70;;;;;;;14.36;92.81;98728.64;107003;1256;71492;-83
2023/11/01 04:34:01;;;;;;;16.10;11.20;;;;;;;14.31;93.26;98725.92;106675;1253;61859;-81
2023/11/01 04:36:28;;;;;;;17.20;12.30;;;;;;;14.31;93.07;98723.41;106658;1254;60594;-81
2023/11/01 04:38:57;;;;;;;13.50;11.90;;;;;;;14.35;92.72;98719.56;106435;1260;73076;-84
2023/11/01 04:41:27;;;;;;;14.60;11.60;;;;;;;14.33;92.82;98724.31;107006;1254;70176;-86
2023/11/01 04:43:55;;;;;;;14.80;10.50;;;;;;;14.33;92.93;98719.14;109037;1253;71927;-85
2023/11/01 04:46:23;;;;;;;14.70;10.90;;;;;;;14.40;92.52;98713.36;109137;1254;60422;-88
2023/11/01 04:48:51;;;;;;;17.00;12.10;;;;;;;14.44;92.20;98711.02;109125;1253;58771;-85
2023/11/01 04:51:19;;;;;;;20.60;13.80;;;;;;;14.41;92.27;98713.02;108600;1258;71788;-86
2023/11/01 04:53:47;;;;;;;15.70;11.30;;;;;;;14.38;92.37;98712.19;109167;1253;69481;-87
2023/11/01 04:56:15;;;;;;;14.90;11.40;;;;;;;14.46;92.05;98713.44;109141;1253;71537;-89
2023/11/01 04:58:44;;;;;;;17.80;12.10;;;;;;;14.48;91.51;98726.13;108985;1258;60882;-92
2023/11/01 05:01:15;;;;;;;19.70;12.40;;;;;;;14.42;91.52;98725.23;108729;1253;59452;-91
2023/11/01 05:03:45;;;;;;;21.00;11.90;;;;;;;14.40;91.75;98732.31;108847;1253;71530;-91
2023/11/01 05:06:14;;;;;;;17.80;12.30;;;;;;;14.40;91.79;98733.50;108863;1253;68965;-92
2023/11/01 05:08:43;;;;;;;17.10;11.30;;;;;;;14.35;91.89;98745.70;109186;1254;71691;-91
2023/11/01 05:11:12;;;;;;;21.40;11.30;;;;;;;14.36;91.94;98748.48;108745;1254;60429;-89
2023/11/01 05:13:44;;;;;;;18.70;12.60;;;;;;;14.39;91.73;98744.50;109103;1254;59215;-90
2023/11/01 05:29:44;;;;;;;21.40;13.50;;;;;;;14.86;89.06;98749.70;106552;1282;613193;-89
2023/11/01 05:32:13;;;;;;;17.70;13.10;;;;;;;14.91;88.14;98757.98;106365;1272;159042;-85
2023/11/01 05:34:40;;;;;;;15.50;12.30;;;;;;;14.89;88.09;98759.03;105874;1264;59454;-83
2023/11/01 05:37:11;;;;;;;22.20;14.90;;;;;;;14.81;87.79;98755.64;105558;1266;69969;-83
2023/11/01 05:39:40;;;;;;;19.20;14.00;;;;;;;14.68;88.56;98771.96;105266;1267;70183;-83
2023/11/01 05:42:08;;;;;;;15.80;12.60;;;;;;;14.60;89.21;98776.84;105409;1267;71806;-85
2023/11/01 05:44:36;;;;;;;18.90;13.60;;;;;;;14.55;89.27;98780.31;105691;1264;61686;-84
2023/11/01 05:47:04;;;;;;;21.50;14.90;;;;;;;14.46;89.90;98777.44;107991;1263;62091;-84
2023/11/01 05:49:31;;;;;;;21.40;11.30;;;;;;;14.40;90.24;98762.24;107701;1264;70812;-81
2023/11/01 05:51:59;;;;;;;15.40;11.90;;;;;;;14.43;90.06;98759.05;106378;1269;69065;-86
2023/11/01 05:54:26;;;;;;;16.60;12.90;;;;;;;14.46;89.76;98755.94;105275;1267;72932;-86
2023/11/01 05:56:54;;;;;;;20.50;13.60;;;;;;;14.41;90.10;98755.94;105806;1265;59667;-83
2023/11/01 05:59:21;;;;;;;16.40;12.30;;;;;;;14.40;90.30;98763.36;106113;1264;60087;-85
2023/11/01 06:01:52;;;;;;;21.70;11.90;;;;;;;14.45;90.15;98760.80;105379;1269;73077;-80
2023/11/01 06:04:21;;;;;;;17.40;13.20;;;;;;;14.45;90.08;98764.79;105761;1263;69499;-79
2023/11/01 06:06:49;;;;;;;20.20;13.50;;;;;;;14.42;89.86;98759.77;105710;1260;72932;-80
2023/11/01 06:09:19;;;;;;;19.10;14.20;;;;;;;14.39;89.93;98764.63;106439;1254;60849;-79
2023/11/01 06:11:47;;;;;;;18.50;12.20;;;;;;;14.44;89.94;98761.17;106318;1254;59700;-80
2023/11/01 06:14:15;;;;;;;16.60;12.30;;;;;;;14.49;89.42;98755.23;106750;1254;73898;-80
2023/11/01 06:16:43;;;;;;;18.00;13.10;;;;;;;14.46;89.56;98764.87;107442;1254;68722;-79
2023/11/01 06:19:11;;;;;;;13.80;11.60;;;;;;;14.44;89.67;98768.70;106416;1259;71148;-80
2023/11/01 06:21:39;;;;;;;19.60;13.00;;;;;;;14.48;89.46;98781.17;105935;1257;60746;-76
2023/11/01 06:24:07;;;;;;;19.90;14.90;;;;;;;14.47;89.26;98786.61;105912;1257;59494;-82
2023/11/01 06:26:35;;;;;;;20.60;15.40;;;;;;;14.44;89.38;98787.83;106558;1254;73182;-80
2023/11/01 06:29:03;;;;;;;18.80;13.40;;;;;;;14.38;89.62;98784.00;106586;1256;69008;-76
2023/11/01 06:31:31;;;;;;;19.40;12.90;;;;;;;14.43;89.41;98779.77;106362;1259;71168;-74
2023/11/01 06:33:59;;;;;;;17.90;15.00;;;;;;;14.44;89.10;98785.23;106890;1257;60065;-78
2023/11/01 06:36:27;;;;;;;20.60;14.50;;;;;;;14.42;89.28;98778.98;107861;1254;59605;-77
2023/11/01 06:38:54;;;;;;;17.70;12.30;;;;;;;14.44;89.08;98780.83;106425;1254;73058;-80
2023/11/01 06:41:22;;;;;;;21.70;13.40;;;;;;;14.50;88.87;98794.11;105861;1254;70159;-81
2023/11/01 06:43:52;;;;;;;22.20;14.30;;;;;;;14.49;88.71;98789.92;107121;1254;72684;-80
2023/11/01 06:46:20;;;;;;;22.80;13.00;;;;;;;14.44;88.74;98789.88;108181;1254;60432;-80
2023/11/01 06:48:48;;;;;;;15.60;11.70;;;;;;;14.50;88.38;98797.11;108689;1254;59525;-83
2023/11/01 06:51:16;;;;;;;20.40;11.80;;;;;;;14.54;88.08;98797.02;108508;1254;73194;-83
2023/11/01 06:53:43;;;;;;;16.50;13.50;;;;;;;14.54;88.04;98803.73;107191;1254;68931;-83
2023/11/01 06:56:13;;;;;;;19.30;12.20;;;;;;;14.50;87.87;98803.44;106315;1256;71533;-86
2023/11/01 06:58:43;;;;;;;19.50;12.30;;;;;;;14.52;88.02;98794.97;106129;1254;61660;-82
2023/11/01 07:01:11;;;;;;;19.20;12.40;;;;;;;14.60;87.63;98799.98;106132;1254;61142;-82
2023/11/01 07:03:38;;;;;;;15.50;12.00;;;;;;;14.60;87.21;98791.48;106017;1254;72971;-77
2023/11/01 07:06:08;;;;;;;14.70;9.90;;;;;;;14.60;86.96;98787.57;105953;1259;69148;-81
2023/11/01 07:08:37;;;;;;;16.60;11.30;;;;;;;14.65;86.69;98783.79;105880;1254;71413;-78
2023/11/01 07:11:05;;;;;;;13.30;11.90;;;;;;;14.66;86.31;98782.30;105658;1257;59857;-79
2023/11/01 07:13:35;;;;;;;15.30;11.90;;;;;;;14.63;86.45;98786.85;105797;1259;60131;-78
2023/11/01 07:16:04;;;;;;;13.60;11.00;;;;;;;14.62;86.81;98786.70;105693;1254;73873;-80
2023/11/01 07:18:31;;;;;;;14.50;11.60;;;;;;;14.67;86.35;98789.65;105830;1254;70260;-78
2023/11/01 07:20:59;;;;;;;14.50;10.70;;;;;;;14.69;86.12;98784.95;105723;1260;71393;-78
2023/11/01 07:23:27;;;;;;;15.60;11.10;;;;;;;14.65;86.08;98784.93;105702;1254;61922;-79
2023/11/01 07:25:54;;;;;;;16.40;11.10;;;;;;;14.69;86.18;98782.73;105774;1255;59618;-79
2023/11/01 07:28:22;;;;;;;18.80;12.00;;;;;;;14.73;85.81;98785.98;106195;1259;72774;-79
2023/11/01 07:30:50;;;;;;;15.90;10.90;;;;;;;14.71;85.72;98788.92;106760;1254;70932;-80
2023/11/01 07:33:18;;;;;;;16.10;11.40;;;;;;;14.71;85.74;98786.95;105907;1254;72602;-79
2023/11/01 07:35:46;;;;;;;17.20;12.20;;;;;;;14.79;85.47;98790.66;105995;1257;59762;-79
2023/11/01 07:38:13;;;;;;;17.90;11.70;;;;;;;14.78;85.40;98792.95;105798;1254;59663;-77
2023/11/01 07:40:41;;;;;;;12.70;9.50;;;;;;;14.77;85.21;98789.58;105799;1254;71778;-81
2023/11/01 07:43:09;;;;;;;18.80;10.50;;;;;;;14.85;85.07;98782.39;105962;1261;69062;-82
2023/11/01 07:45:36;;;;;;;17.20;10.80;;;;;;;14.90;84.42;98785.34;106171;1259;71255;-82
2023/11/01 07:48:04;;;;;;;16.20;11.40;;;;;;;14.91;84.04;98779.74;106657;1260;61012;-80
2023/11/01 07:50:32;;;;;;;15.40;9.50;;;;;;;14.90;84.05;98782.30;107182;1254;60963;-79
2023/11/01 07:53:00;;;;;;;15.10;9.00;;;;;;;14.97;83.66;98785.23;106776;1254;75166;-81
2023/11/01 07:55:29;;;;;;;14.30;8.50;;;;;;;15.05;83.13;98785.31;106188;1254;71861;-85
2023/11/01 07:57:57;;;;;;;15.30;9.70;;;;;;;15.08;82.93;98789.42;106443;1257;72620;-80
2023/11/01 08:00:25;;;;;;;12.90;9.70;;;;;;;15.10;82.45;98790.22;106791;1259;59740;-80
2023/11/01 08:02:53;;;;;;;13.70;8.70;;;;;;;15.12;82.41;98793.99;107461;1254;59574;-79
2023/11/01 08:05:22;;;;;;;10.90;6.80;;;;;;;15.25;80.94;98796.83;107624;1254;73441;-81
2023/11/01 08:07:49;;;;;;;11.70;8.00;;;;;;;15.32;80.33;98792.89;106486;1254;69035;-86
2023/11/01 08:10:17;;;;;;;11.90;9.30;;;;;;;15.31;80.29;98802.41;106175;1256;72495;-86
2023/11/01 08:12:46;;;;;;;14.80;9.20;;;;;;;15.28;80.47;98805.94;106390;1260;59730;-85
2023/11/01 08:15:16;;;;;;;15.60;7.60;;;;;;;15.28;80.56;98804.54;106281;1254;60219;-84
2023/11/01 08:17:44;;;;;;;10.30;7.70;;;;;;;15.37;80.13;98813.04;106730;1256;71282;-88
2023/11/01 08:20:12;;;;;;;13.30;9.20;;;;;;;15.44;79.49;98832.20;106809;1257;70569;-86
2023/11/01 08:22:40;;;;;;;11.60;8.90;;;;;;;15.40;79.35;98832.16;106639;1255;73641;-86
2023/11/01 08:25:08;;;;;;;11.60;8.40;;;;;;;15.35;79.76;98833.16;107298;1254;59611;-85
2023/11/01 08:27:36;;;;;;;12.10;7.20;;;;;;;15.34;79.84;98835.92;106964;1254;59513;-86
2023/11/01 08:30:05;;;;;;;13.80;7.70;;;;;;;15.40;79.75;98844.23;106559;1258;74027;-84
2023/11/01 08:32:33;;;;;;;13.80;8.80;;;;;;;15.40;79.21;98850.43;106757;1254;69409;-83
2023/11/01 08:35:00;;;;;;;12.00;8.80;;;;;;;15.37;79.40;98864.23;108339;1254;73536;-83
2023/11/01 08:37:28;;;;;;;13.00;8.50;;;;;;;15.34;79.57;98864.17;108447;1254;59132;-85
2023/11/01 08:39:56;;;;;;;12.20;8.70;;;;;;;15.29;79.67;98868.46;107865;1254;59621;-85
2023/11/01 08:42:28;;;;;;;10.90;7.50;;;;;;;15.29;79.89;98868.20;107107;1260;73984;-82
2023/11/01 08:44:57;;;;;;;10.70;8.30;;;;;;;15.29;80.15;98869.58;107128;1259;69835;-88
2023/11/01 08:47:35;;;;;;;12.90;8.60;;;;;;;15.23;80.75;98868.21;106490;1255;73151;-86
2023/11/01 08:50:05;;;;;;;12.40;9.10;;;;;;;15.15;81.27;98865.17;106550;1261;60000;-88
2023/11/01 08:52:33;;;;;;;14.30;8.00;;;;;;;15.08;81.97;98863.20;106632;1257;61934;-87
2023/11/01 08:55:01;;;;;;;11.50;9.00;;;;;;;15.12;82.25;98859.48;107000;1254;73371;-86
2023/11/01 08:57:28;;;;;;;11.00;8.10;;;;;;;15.08;82.36;98860.32;108355;1254;69043;-86
2023/11/01 08:59:57;;;;;;;12.70;8.50;;;;;;;15.02;83.02;98861.29;107196;1257;72053;-86
2023/11/01 09:02:27;;;;;;;11.50;7.80;;;;;;;14.97;83.43;98860.38;107202;1256;63178;-87
2023/11/01 09:04:57;;;;;;;10.50;7.80;;;;;;;15.00;83.43;98866.10;108857;1255;60001;-84
2023/11/01 09:07:24;;;;;;;11.40;8.00;;;;;;;14.99;83.70;98874.30;108688;1257;74127;-84
2023/11/01 09:09:53;;;;;;;13.70;8.80;;;;;;;14.88;84.07;98876.61;108031;1257;69478;-84
2023/11/01 09:12:23;;;;;;;12.10;7.50;;;;;;;14.76;85.03;98877.84;108468;1257;71500;-84
2023/11/01 09:14:51;;;;;;;11.50;7.20;;;;;;;14.74;85.64;98878.52;106126;1257;62736;-78
2023/11/01 09:17:19;;;;;;;11.50;8.60;;;;;;;14.70;86.17;98875.17;105725;1260;59590;-77
2023/11/01 09:19:47;;;;;;;11.50;8.00;;;;;;;14.59;87.12;98879.52;105575;1263;73075;-77
2023/11/01 09:22:15;;;;;;;10.80;8.00;;;;;;;14.51;87.70;98880.47;105720;1257;70005;-78
2023/11/01 09:24:43;;;;;;;13.60;8.30;;;;;;;14.50;88.29;98876.05;105708;1257;74749;-79
2023/11/01 09:27:12;;;;;;;11.60;8.40;;;;;;;14.48;88.62;98878.89;105622;1256;59727;-79
2023/11/01 09:29:39;;;;;;;13.20;8.50;;;;;;;14.39;89.25;98875.58;105675;1256;59846;-76
2023/11/01 09:32:07;;;;;;;11.80;7.20;;;;;;;14.35;89.53;98873.13;105879;1257;71754;-80
2023/11/01 09:34:34;;;;;;;10.60;7.40;;;;;;;14.34;90.23;98868.78;106211;1262;68720;-79
2023/11/01 09:37:02;;;;;;;10.50;7.20;;;;;;;14.24;90.79;98867.84;105586;1261;72928;-80
2023/11/01 09:39:30;;;;;;;11.50;6.90;;;;;;;14.19;91.74;98870.91;105615;1256;62693;-78
2023/11/01 09:42:03;;;;;;;9.30;6.70;;;;;;;14.14;92.24;98867.98;105719;1257;61561;-80
2023/11/01 09:44:31;;;;;;;11.60;7.40;;;;;;;14.05;92.94;98868.02;105665;1260;73909;-77
2023/11/01 09:46:59;;;;;;;8.30;6.40;;;;;;;13.95;93.66;98866.98;105697;1257;70781;-75
2023/11/01 09:49:29;;;;;;;12.00;6.20;;;;;;;13.93;94.13;98860.95;105467;1257;71388;-80
2023/11/01 09:51:59;;;;;;;10.30;6.40;;;;;;;13.90;94.61;98861.09;105803;1257;62289;-81
2023/11/01 09:54:27;;;;;;;10.20;6.80;;;;;;;13.85;95.26;98862.50;105677;1257;60566;-80
2023/11/01 09:56:54;;;;;;;11.20;5.20;;;;;;;13.79;95.81;98856.65;105707;1257;75935;-80
2023/11/01 09:59:22;;;;;;;9.80;5.60;;;;;;;13.81;95.75;98853.72;105739;1257;70594;-79
2023/11/01 10:01:50;;;;;;;10.90;6.90;;;;;;;13.80;95.79;98856.81;105890;1257;73811;-80
2023/11/01 10:04:18;;;;;;;9.30;5.40;;;;;;;13.73;96.27;98850.63;105707;1260;62034;-79
2023/11/01 10:06:48;;;;;;;9.10;6.00;;;;;;;13.73;96.40;98843.65;105690;1257;60302;-78
2023/11/01 10:09:16;;;;;;;8.90;5.70;;;;;;;13.75;96.61;98842.13;105660;1260;73098;-78
2023/11/01 10:11:47;;;;;;;10.90;6.60;;;;;;;13.74;97.07;98838.71;105727;1258;71972;-78
2023/11/01 10:14:31;;;;;;;6.70;5.50;;;;;;;13.72;97.42;98841.39;105709;1257;74636;-80
2023/11/01 10:16:59;;;;;;;6.50;4.70;;;;;;;13.76;96.89;98840.23;105711;1258;61700;-82
2023/11/01 10:19:27;;;;;;;6.10;4.40;;;;;;;13.78;96.75;98841.14;105965;1260;59145;-85
2023/11/01 10:21:55;;;;;;;5.50;4.50;;;;;;;13.75;96.98;98831.81;106253;1255;76061;-82
2023/11/01 10:24:25;;;;;;;5.50;4.30;;;;;;;13.72;96.90;98831.91;107049;1257;72384;-82
2023/11/01 10:26:54;;;;;;;6.90;3.60;;;;;;;13.68;97.06;98833.77;108300;1257;72266;-81
2023/11/01 10:29:23;;;;;;;4.90;3.80;;;;;;;13.74;96.88;98834.90;106196;1260;62615;-82
2023/11/01 10:31:54;;;;;;;6.80;4.80;;;;;;;13.80;96.86;98830.89;106286;1254;61111;-83
2023/11/01 10:34:31;;;;;;;7.40;4.80;;;;;;;13.81;96.72;98834.63;106551;1261;73844;-78
2023/11/01 10:36:59;;;;;;;5.00;4.20;;;;;;;13.77;96.41;98839.27;108163;1255;70987;-86
2023/11/01 10:39:28;;;;;;;7.10;4.60;;;;;;;13.78;95.95;98839.32;106692;1257;72816;-82
2023/11/01 10:41:56;;;;;;;6.60;3.70;;;;;;;13.80;96.42;98834.17;106073;1257;60845;-80
2023/11/01 10:44:26;;;;;;;6.40;4.60;;;;;;;13.83;96.42;98828.05;107194;1257;60508;-82
2023/11/01 10:46:54;;;;;;;6.10;4.20;;;;;;;13.83;96.65;98829.56;106881;1255;72614;-86
2023/11/01 10:49:21;;;;;;;5.60;5.00;;;;;;;13.87;96.90;98831.45;106508;1257;69300;-86
2023/11/01 10:51:49;;;;;;;6.00;4.70;;;;;;;13.90;96.22;98827.90;106304;1260;74007;-85
2023/11/01 10:54:17;;;;;;;9.60;4.80;;;;;;;13.89;96.39;98829.71;106162;1257;61637;-83
2023/11/01 10:56:45;;;;;;;8.80;4.80;;;;;;;13.90;96.37;98832.33;105787;1256;60999;-82
2023/11/01 10:59:22;;;;;;;6.70;5.20;;;;;;;13.87;96.88;98830.77;106030;1257;74797;-78
2023/11/01 11:02:21;;;;;;;12.40;5.90;;;;;;;13.88;97.17;98827.63;106173;1257;72881;-81
2023/11/01 11:04:59;;;;;;;10.50;5.50;;;;;;;13.96;97.36;98830.75;106197;1257;74911;-81
2023/11/01 11:07:51;;;;;;;9.40;5.30;;;;;;;14.00;96.74;98831.43;106978;1257;61495;-81
2023/11/01 11:10:32;;;;;;;8.90;5.60;;;;;;;13.99;96.96;98837.48;106200;1257;60522;-86
2023/11/01 11:13:28;;;;;;;7.60;4.90;;;;;;;13.99;97.31;98842.85;105604;1260;72749;-79
2023/11/01 11:15:59;;;;;;;8.80;5.50;;;;;;;14.06;96.88;98847.10;105803;1257;69372;-79
2023/11/01 11:18:28;;;;;;;7.50;5.10;;;;;;;14.08;96.74;98848.39;106409;1257;72818;-78
2023/11/01 11:20:58;;;;;;;7.30;6.30;;;;;;;14.06;96.45;98851.61;105961;1259;61028;-77
2023/11/01 11:23:33;;;;;;;9.90;5.30;;;;;;;14.00;96.50;98855.14;105665;1256;60543;-80
2023/11/01 11:26:03;;;;;;;7.50;5.60;;;;;;;14.01;96.78;98851.84;105875;1262;75594;-81
2023/11/01 11:28:40;;;;;;;7.40;5.50;;;;;;;14.03;96.36;98855.62;105923;1261;71456;-83
2023/11/01 11:31:12;;;;;;;9.50;6.00;;;;;;;14.04;96.45;98861.04;105767;1256;73105;-81
2023/11/01 11:33:46;;;;;;;6.40;5.80;;;;;;;13.99;96.60;98861.39;105901;1257;60376;-82
2023/11/01 11:36:14;;;;;;;7.80;6.10;;;;;;;13.96;96.78;98858.48;106560;1260;60410;-83
2023/11/01 11:38:56;;;;;;;9.50;6.30;;;;;;;14.00;96.98;98859.41;107811;1256;74858;-86
2023/11/01 11:41:26;;;;;;;10.40;6.80;;;;;;;14.04;97.01;98856.59;108564;1259;69440;-85